createdAt,value
2023-04-25T00:00:00.508Z,88.9
2023-04-25T00:01:00.537Z,88.9
2023-04-25T00:02:00.502Z,88.9
2023-04-25T00:03:00.756Z,88.9
2023-04-25T00:04:00.699Z,89.2
2023-04-25T00:05:00.697Z,89.2
2023-04-25T00:06:00.495Z,89.2
2023-04-25T00:07:00.487Z,89.2
2023-04-25T00:08:00.532Z,89.5
2023-04-25T00:09:00.492Z,89.2
2023-04-25T00:10:00.505Z,89.2
2023-04-25T00:11:00.508Z,89.5
2023-04-25T00:12:00.515Z,88.9
2023-04-25T00:13:00.545Z,88.9
2023-04-25T00:14:00.511Z,88.9
2023-04-25T00:15:00.525Z,88.9
2023-04-25T00:16:00.527Z,88.9
2023-04-25T00:17:00.505Z,88.9
2023-04-25T00:18:00.630Z,88.9
2023-04-25T00:19:00.501Z,88.6
2023-04-25T00:20:00.530Z,88.3
2023-04-25T00:21:00.533Z,88.3
2023-04-25T00:22:00.513Z,88.3
2023-04-25T00:23:00.513Z,88.3
2023-04-25T00:24:00.532Z,88.3
2023-04-25T00:25:00.527Z,88
2023-04-25T00:26:00.524Z,87.7
2023-04-25T00:27:00.531Z,87.7
2023-04-25T00:28:00.512Z,87.3
2023-04-25T00:29:00.581Z,87
2023-04-25T00:30:00.547Z,87.3
2023-04-25T00:31:00.644Z,87
2023-04-25T00:32:00.751Z,87
2023-04-25T00:33:00.561Z,87.3
2023-04-25T00:34:00.530Z,87
2023-04-25T00:35:00.562Z,87
2023-04-25T00:36:00.519Z,86.4
2023-04-25T00:37:00.544Z,87
2023-04-25T00:38:00.515Z,87
2023-04-25T00:39:00.519Z,87
2023-04-25T00:40:00.553Z,87
2023-04-25T00:41:00.552Z,87
2023-04-25T00:42:00.577Z,87
2023-04-25T00:43:00.540Z,86.4
2023-04-25T00:44:00.526Z,86.4
2023-04-25T00:45:00.556Z,86.1
2023-04-25T00:46:00.554Z,85.8
2023-04-25T00:47:00.620Z,85.8
2023-04-25T00:48:00.573Z,85.5
2023-04-25T00:49:00.574Z,85.1
2023-04-25T00:50:00.542Z,85.1
2023-04-25T00:51:00.530Z,85.1
2023-04-25T00:52:00.544Z,84.5
2023-04-25T00:53:00.556Z,84.5
2023-04-25T00:54:00.531Z,83.9
2023-04-25T00:55:00.589Z,84.2
2023-04-25T00:56:00.559Z,83.9
2023-04-25T00:57:00.547Z,83.6
2023-04-25T00:58:00.536Z,83.9
2023-04-25T00:59:00.546Z,83.6
2023-04-25T01:00:00.589Z,83.3
2023-04-25T01:01:00.636Z,83.3
2023-04-25T01:02:00.621Z,83.3
2023-04-25T01:03:00.741Z,83.3
2023-04-25T01:04:00.672Z,83.3
2023-04-25T01:05:00.561Z,83.3
2023-04-25T01:06:00.556Z,82.7
2023-04-25T01:07:00.571Z,82.7
2023-04-25T01:08:00.550Z,82.4
2023-04-25T01:09:00.534Z,82.7
2023-04-25T01:10:00.585Z,82.4
2023-04-25T01:11:00.574Z,82.1
2023-04-25T01:12:00.557Z,82.1
2023-04-25T01:13:00.587Z,82.7
2023-04-25T01:14:00.555Z,82.1
2023-04-25T01:15:00.572Z,82.1
2023-04-25T01:16:00.563Z,82.1
2023-04-25T01:17:00.693Z,82.1
2023-04-25T01:18:00.608Z,82.1
2023-04-25T01:19:00.622Z,82.1
2023-04-25T01:20:00.707Z,82.1
2023-04-25T01:21:00.559Z,82.7
2023-04-25T01:22:00.556Z,82.1
2023-04-25T01:23:00.569Z,82.1
2023-04-25T01:24:00.564Z,81.7
2023-04-25T01:25:00.617Z,81.8
2023-04-25T01:26:00.593Z,81.5
2023-04-25T01:27:00.578Z,81.4
2023-04-25T01:28:00.568Z,81.5
2023-04-25T01:29:00.562Z,81.2
2023-04-25T01:30:00.699Z,82.1
2023-04-25T01:31:00.570Z,82.7
2023-04-25T01:32:00.606Z,82.4
2023-04-25T01:33:00.600Z,82.1
2023-04-25T01:34:00.578Z,82.4
2023-04-25T01:35:00.578Z,82.4
2023-04-25T01:36:00.593Z,82.1
2023-04-25T01:37:00.588Z,82.1
2023-04-25T01:38:00.589Z,82.1
2023-04-25T01:39:00.600Z,81.8
2023-04-25T01:40:00.640Z,81.5
2023-04-25T01:41:00.596Z,82.1
2023-04-25T01:42:00.603Z,82.4
2023-04-25T01:43:00.595Z,82.4
2023-04-25T01:44:00.578Z,82.7
2023-04-25T01:45:00.589Z,82.7
2023-04-25T01:46:00.604Z,83.3
2023-04-25T01:47:00.600Z,83.3
2023-04-25T01:48:00.669Z,83
2023-04-25T01:49:00.595Z,83.3
2023-04-25T01:50:00.608Z,83.3
2023-04-25T01:51:00.624Z,83.3
2023-04-25T01:52:00.619Z,83.3
2023-04-25T01:53:00.586Z,83.3
2023-04-25T01:54:01.215Z,83.3
2023-04-25T01:55:00.628Z,83
2023-04-25T01:56:00.614Z,82.7
2023-04-25T01:57:00.611Z,82.7
2023-04-25T01:58:00.594Z,83.3
2023-04-25T01:59:00.617Z,82.7
2023-04-25T02:00:01.941Z,82.7
2023-04-25T02:01:01.785Z,82.4
2023-04-25T02:02:01.718Z,82.7
2023-04-25T02:03:02.086Z,82.7
2023-04-25T02:04:02.015Z,82.7
2023-04-25T02:05:01.812Z,82.7
2023-04-25T02:06:02.001Z,82.7
2023-04-25T02:07:01.784Z,82.1
2023-04-25T02:08:01.824Z,82.1
2023-04-25T02:09:01.862Z,82.1
2023-04-25T02:10:02.280Z,82.1
2023-04-25T02:11:02.131Z,81.8
2023-04-25T02:12:01.981Z,81.7
2023-04-25T02:13:01.925Z,82.1
2023-04-25T02:14:01.871Z,82.1
2023-04-25T02:15:01.998Z,82.1
2023-04-25T02:16:02.042Z,82.1
2023-04-25T02:17:02.170Z,82.1
2023-04-25T02:18:02.070Z,82
2023-04-25T02:19:01.899Z,82.1
2023-04-25T02:20:02.108Z,82.1
2023-04-25T02:21:01.915Z,82.1
2023-04-25T02:22:01.928Z,82.7
2023-04-25T02:23:01.780Z,82.7
2023-04-25T02:24:01.892Z,82.7
2023-04-25T02:25:01.761Z,82.7
2023-04-25T02:26:01.742Z,82.7
2023-04-25T02:27:01.771Z,82.7
2023-04-25T02:28:01.741Z,82.6
2023-04-25T02:29:01.749Z,82
2023-04-25T02:30:01.956Z,82.7
2023-04-25T02:31:01.778Z,82.7
2023-04-25T02:32:01.757Z,82
2023-04-25T02:33:01.802Z,82
2023-04-25T02:34:01.736Z,82.3
2023-04-25T02:35:01.760Z,82
2023-04-25T02:36:01.768Z,82.3
2023-04-25T02:37:01.747Z,82
2023-04-25T02:38:01.765Z,82
2023-04-25T02:39:01.742Z,82.3
2023-04-25T02:40:01.852Z,82.6
2023-04-25T02:41:01.780Z,82.6
2023-04-25T02:42:01.767Z,82.6
2023-04-25T02:43:01.777Z,82.6
2023-04-25T02:44:01.751Z,82.6
2023-04-25T02:45:01.792Z,82.6
2023-04-25T02:46:01.769Z,82.9
2023-04-25T02:47:01.833Z,82.6
2023-04-25T02:48:01.840Z,82.6
2023-04-25T02:49:01.754Z,81.9
2023-04-25T02:50:01.891Z,82
2023-04-25T02:51:01.777Z,82.6
2023-04-25T02:52:01.776Z,82.6
2023-04-25T02:53:01.774Z,82.6
2023-04-25T02:54:01.793Z,82.6
2023-04-25T02:55:01.797Z,82.6
2023-04-25T02:56:01.789Z,82.5
2023-04-25T02:57:01.790Z,82.8
2023-04-25T02:58:01.786Z,83.2
2023-04-25T02:59:01.754Z,83.1
2023-04-25T03:00:01.997Z,83.1
2023-04-25T03:01:01.893Z,83.1
2023-04-25T03:02:01.775Z,83.1
2023-04-25T03:03:01.915Z,83.1
2023-04-25T03:04:01.779Z,83.1
2023-04-25T03:05:01.792Z,83.1
2023-04-25T03:06:01.834Z,83.1
2023-04-25T03:07:01.810Z,83.1
2023-04-25T03:08:01.769Z,83.1
2023-04-25T03:09:01.824Z,83.1
2023-04-25T03:10:01.846Z,83.1
2023-04-25T03:11:01.802Z,83.1
2023-04-25T03:12:01.792Z,83.1
2023-04-25T03:13:01.812Z,83.1
2023-04-25T03:14:01.773Z,82.8
2023-04-25T03:15:01.782Z,82.8
2023-04-25T03:16:02.073Z,83.1
2023-04-25T03:17:01.839Z,83.1
2023-04-25T03:18:01.877Z,83.1
2023-04-25T03:19:01.812Z,83.1
2023-04-25T03:20:01.919Z,83.1
2023-04-25T03:21:01.856Z,83.1
2023-04-25T03:22:01.793Z,83.1
2023-04-25T03:23:01.793Z,83.4
2023-04-25T03:24:01.792Z,83.4
2023-04-25T03:25:01.795Z,83.3
2023-04-25T03:26:01.838Z,83.3
2023-04-25T03:27:01.813Z,83.6
2023-04-25T03:28:01.798Z,83.3
2023-04-25T03:29:01.792Z,83.6
2023-04-25T03:30:01.866Z,83.6
2023-04-25T03:31:01.828Z,83.6
2023-04-25T03:32:01.861Z,83.6
2023-04-25T03:33:01.887Z,83.6
2023-04-25T03:34:01.829Z,84.3
2023-04-25T03:35:01.824Z,84.6
2023-04-25T03:36:01.828Z,84.2
2023-04-25T03:37:01.803Z,84.8
2023-04-25T03:38:01.804Z,84.8
2023-04-25T03:39:01.824Z,84.8
2023-04-25T03:40:01.854Z,84.8
2023-04-25T03:41:01.825Z,84.8
2023-04-25T03:42:01.821Z,85.1
2023-04-25T03:43:01.811Z,85.5
2023-04-25T03:44:01.814Z,85.1
2023-04-25T03:45:01.855Z,85.4
2023-04-25T03:46:01.863Z,85.4
2023-04-25T03:47:01.877Z,85.4
2023-04-25T03:48:01.946Z,85.4
2023-04-25T03:49:01.806Z,85.4
2023-04-25T03:50:01.910Z,85.4
2023-04-25T03:51:01.815Z,85.4
2023-04-25T03:52:01.824Z,85.4
2023-04-25T03:53:01.860Z,85.4
2023-04-25T03:54:01.820Z,85.4
2023-04-25T03:55:01.824Z,85.7
2023-04-25T03:56:01.830Z,85.7
2023-04-25T03:57:01.867Z,85.7
2023-04-25T03:58:01.854Z,85.4
2023-04-25T03:59:01.830Z,85.4
2023-04-25T04:00:01.994Z,85.4
2023-04-25T04:01:01.827Z,85.4
2023-04-25T04:02:01.867Z,85.4
2023-04-25T04:03:02.050Z,86
2023-04-25T04:04:02.053Z,86
2023-04-25T04:05:02.089Z,85.7
2023-04-25T04:06:01.849Z,86
2023-04-25T04:07:01.861Z,86
2023-04-25T04:08:01.844Z,86
2023-04-25T04:09:01.858Z,86
2023-04-25T04:10:01.940Z,86.3
2023-04-25T04:11:01.864Z,86.6
2023-04-25T04:12:01.855Z,86.3
2023-04-25T04:13:01.855Z,86.6
2023-04-25T04:14:01.864Z,86.6
2023-04-25T04:15:01.843Z,86.6
2023-04-25T04:16:01.997Z,86
2023-04-25T04:17:01.870Z,86.3
2023-04-25T04:18:01.875Z,86.6
2023-04-25T04:19:01.859Z,86.6
2023-04-25T04:20:01.934Z,86.9
2023-04-25T04:21:01.874Z,87.3
2023-04-25T04:22:01.869Z,87.3
2023-04-25T04:23:01.871Z,87.2
2023-04-25T04:24:02.915Z,87.2
2023-04-25T04:25:01.935Z,87.9
2023-04-25T04:26:01.904Z,87.5
2023-04-25T04:27:01.868Z,87.5
2023-04-25T04:28:01.898Z,87.6
2023-04-25T04:29:01.877Z,87.9
2023-04-25T04:30:01.940Z,87.9
2023-04-25T04:31:01.958Z,87.9
2023-04-25T04:32:01.900Z,87.9
2023-04-25T04:33:01.958Z,87.9
2023-04-25T04:34:01.910Z,87.9
2023-04-25T04:35:01.880Z,87.9
2023-04-25T04:36:01.936Z,87.9
2023-04-25T04:37:01.934Z,87.9
2023-04-25T04:38:01.875Z,88.5
2023-04-25T04:39:01.894Z,88.2
2023-04-25T04:40:02.058Z,88.2
2023-04-25T04:41:01.917Z,88.2
2023-04-25T04:42:01.902Z,88.2
2023-04-25T04:43:01.928Z,88.2
2023-04-25T04:44:01.911Z,87.9
2023-04-25T04:45:01.923Z,87.9
2023-04-25T04:46:01.892Z,87.9
2023-04-25T04:47:02.006Z,87.9
2023-04-25T04:48:01.936Z,87.9
2023-04-25T04:49:01.899Z,87.9
2023-04-25T04:50:01.931Z,87.3
2023-04-25T04:51:01.904Z,87
2023-04-25T04:52:01.937Z,87.3
2023-04-25T04:53:01.933Z,86.7
2023-04-25T04:54:01.924Z,86.4
2023-04-25T04:55:01.928Z,86.1
2023-04-25T04:56:01.952Z,86.1
2023-04-25T04:57:01.947Z,86.1
2023-04-25T04:58:01.908Z,86.4
2023-04-25T04:59:01.922Z,86.1
2023-04-25T05:00:02.205Z,85.8
2023-04-25T05:01:02.088Z,85.8
2023-04-25T05:02:01.915Z,85.5
2023-04-25T05:03:02.056Z,85.5
2023-04-25T05:04:02.478Z,85.5
2023-04-25T05:05:01.976Z,85.5
2023-04-25T05:06:01.998Z,85.5
2023-04-25T05:07:02.019Z,85.2
2023-04-25T05:08:01.991Z,85.2
2023-04-25T05:09:01.953Z,85.5
2023-04-25T05:10:02.164Z,85.2
2023-04-25T05:11:01.984Z,85.3
2023-04-25T05:12:01.966Z,84.9
2023-04-25T05:13:01.949Z,84.9
2023-04-25T05:14:02.022Z,85.3
2023-04-25T05:15:02.010Z,85.6
2023-04-25T05:16:02.004Z,85.6
2023-04-25T05:17:02.039Z,85.6
2023-04-25T05:18:01.988Z,85
2023-04-25T05:19:01.998Z,85
2023-04-25T05:20:02.003Z,85
2023-04-25T05:21:02.110Z,84.3
2023-04-25T05:22:01.968Z,84.4
2023-04-25T05:23:01.950Z,84.4
2023-04-25T05:24:02.004Z,84.1
2023-04-25T05:25:01.961Z,83.8
2023-04-25T05:26:01.964Z,83.8
2023-04-25T05:27:01.968Z,83.8
2023-04-25T05:28:01.976Z,83.8
2023-04-25T05:29:01.972Z,83.8
2023-04-25T05:30:02.003Z,83.8
2023-04-25T05:31:01.956Z,84.1
2023-04-25T05:32:01.963Z,83.8
2023-04-25T05:33:01.974Z,83.5
2023-04-25T05:34:01.966Z,83.5
2023-04-25T05:35:02.162Z,83.8
2023-04-25T05:36:01.975Z,83.8
2023-04-25T05:37:02.068Z,84.2
2023-04-25T05:38:00.516Z,83.9
2023-04-25T05:39:00.552Z,83.9
2023-04-25T05:40:00.538Z,83.9
2023-04-25T05:41:00.570Z,83.6
2023-04-25T05:42:00.543Z,83.6
2023-04-25T05:43:00.549Z,83.3
2023-04-25T05:44:00.608Z,83.6
2023-04-25T05:45:00.605Z,83
2023-04-25T05:46:00.586Z,83.3
2023-04-25T05:47:00.544Z,83.9
2023-04-25T05:48:00.555Z,83.9
2023-04-25T05:49:00.547Z,83.9
2023-04-25T05:50:00.553Z,84.2
2023-04-25T05:51:00.548Z,84
2023-04-25T05:52:00.545Z,84.3
2023-04-25T05:53:00.553Z,83.9
2023-04-25T05:54:00.539Z,83.6
2023-04-25T05:55:00.568Z,84
2023-04-25T05:56:00.653Z,84
2023-04-25T05:57:00.553Z,84
2023-04-25T05:58:00.586Z,83.4
2023-04-25T05:59:00.563Z,83.4
2023-04-25T06:00:00.585Z,83.4
2023-04-25T06:01:00.583Z,83.4
2023-04-25T06:02:00.608Z,83.1
2023-04-25T06:03:00.725Z,82.8
2023-04-25T06:04:00.804Z,82.8
2023-04-25T06:05:00.870Z,82.8
2023-04-25T06:06:00.733Z,82.2
2023-04-25T06:07:00.552Z,82.2
2023-04-25T06:08:00.567Z,82.2
2023-04-25T06:09:00.581Z,82.2
2023-04-25T06:10:00.573Z,82.2
2023-04-25T06:11:00.595Z,81.9
2023-04-25T06:12:00.570Z,82.2
2023-04-25T06:13:00.594Z,82
2023-04-25T06:14:00.577Z,81.6
2023-04-25T06:15:00.571Z,81.6
2023-04-25T06:16:00.600Z,81
2023-04-25T06:17:00.569Z,80.4
2023-04-25T06:18:00.666Z,80.4
2023-04-25T06:19:00.552Z,80.4
2023-04-25T06:20:00.556Z,79.8
2023-04-25T06:21:00.582Z,79.8
2023-04-25T06:22:00.561Z,80.1
2023-04-25T06:23:00.587Z,80.1
2023-04-25T06:24:00.585Z,80.5
2023-04-25T06:25:00.623Z,80.1
2023-04-25T06:26:00.566Z,79.9
2023-04-25T06:27:00.565Z,79.8
2023-04-25T06:28:00.593Z,79.5
2023-04-25T06:29:00.595Z,79.8
2023-04-25T06:30:00.576Z,79.9
2023-04-25T06:31:00.619Z,79.9
2023-04-25T06:32:00.583Z,79.9
2023-04-25T06:33:00.648Z,79.5
2023-04-25T06:34:00.583Z,79.6
2023-04-25T06:35:00.613Z,79.6
2023-04-25T06:36:00.601Z,79.6
2023-04-25T06:37:00.583Z,79.3
2023-04-25T06:38:00.601Z,79
2023-04-25T06:39:00.599Z,79.3
2023-04-25T06:40:00.618Z,79.3
2023-04-25T06:41:00.620Z,79.3
2023-04-25T06:42:00.599Z,79
2023-04-25T06:43:00.603Z,78
2023-04-25T06:44:00.606Z,78
2023-04-25T06:45:00.618Z,78
2023-04-25T06:46:00.596Z,78
2023-04-25T06:47:00.674Z,77.7
2023-04-25T06:48:00.700Z,78
2023-04-25T06:49:00.623Z,78.3
2023-04-25T06:50:00.599Z,78.7
2023-04-25T06:51:00.609Z,78.6
2023-04-25T06:52:00.592Z,78.3
2023-04-25T06:53:00.639Z,78.7
2023-04-25T06:54:00.644Z,78.7
2023-04-25T06:55:00.620Z,78
2023-04-25T06:56:00.648Z,78
2023-04-25T06:57:00.639Z,78.1
2023-04-25T06:58:00.612Z,78
2023-04-25T06:59:00.655Z,78.3
2023-04-25T07:00:02.277Z,78
2023-04-25T07:01:00.720Z,78.3
2023-04-25T07:02:00.622Z,78
2023-04-25T07:03:00.859Z,78
2023-04-25T07:04:00.887Z,78
2023-04-25T07:05:00.644Z,78
2023-04-25T07:06:00.641Z,78
2023-04-25T07:07:00.636Z,78
2023-04-25T07:08:00.615Z,78
2023-04-25T07:09:00.933Z,78.3
2023-04-25T07:10:00.655Z,78.3
2023-04-25T07:11:00.648Z,78.9
2023-04-25T07:12:00.640Z,79.9
2023-04-25T07:13:00.653Z,79.8
2023-04-25T07:14:00.632Z,79.5
2023-04-25T07:15:00.657Z,79.5
2023-04-25T07:16:00.704Z,79.5
2023-04-25T07:17:00.732Z,79.8
2023-04-25T07:18:00.663Z,80.5
2023-04-25T07:19:00.629Z,79.8
2023-04-25T07:20:00.643Z,80.1
2023-04-25T07:21:00.666Z,80.5
2023-04-25T07:22:00.663Z,80.5
2023-04-25T07:23:00.636Z,80.5
2023-04-25T07:24:00.758Z,80.7
2023-04-25T07:25:00.659Z,80.4
2023-04-25T07:26:00.663Z,81.1
2023-04-25T07:27:00.663Z,81.1
2023-04-25T07:28:00.644Z,81
2023-04-25T07:29:00.649Z,81
2023-04-25T07:30:00.658Z,81.3
2023-04-25T07:31:00.662Z,81.6
2023-04-25T07:32:00.756Z,82
2023-04-25T07:33:00.663Z,82.3
2023-04-25T07:34:02.174Z,82.6
2023-04-25T07:35:00.742Z,82.6
2023-04-25T07:36:00.660Z,82.6
2023-04-25T07:37:00.640Z,82.6
2023-04-25T07:38:00.670Z,82.9
2023-04-25T07:39:00.668Z,82.5
2023-04-25T07:40:00.702Z,82.5
2023-04-25T07:41:00.684Z,82.8
2023-04-25T07:42:00.678Z,82.8
2023-04-25T07:43:00.661Z,83.4
2023-04-25T07:44:00.692Z,83.4
2023-04-25T07:45:00.713Z,83.4
2023-04-25T07:46:00.696Z,83.4
2023-04-25T07:47:02.470Z,83.4
2023-04-25T07:48:00.717Z,83.7
2023-04-25T07:49:00.704Z,83.7
2023-04-25T07:50:00.681Z,83.4
2023-04-25T07:51:00.725Z,82.8
2023-04-25T07:52:00.688Z,83.1
2023-04-25T07:53:00.687Z,83.1
2023-04-25T07:54:00.684Z,82.8
2023-04-25T07:55:00.702Z,83.1
2023-04-25T07:56:00.701Z,83.4
2023-04-25T07:57:00.688Z,83.4
2023-04-25T07:58:00.675Z,83.4
2023-04-25T07:59:00.688Z,84
2023-04-25T08:00:00.700Z,84
2023-04-25T08:01:00.693Z,84
2023-04-25T08:02:00.683Z,84
2023-04-25T08:03:00.842Z,84
2023-04-25T08:04:00.785Z,84
2023-04-25T08:05:01.053Z,84
2023-04-25T08:06:01.649Z,83.7
2023-04-25T08:07:00.679Z,83.7
2023-04-25T08:08:00.692Z,83.4
2023-04-25T08:09:00.709Z,83.1
2023-04-25T08:10:00.732Z,82.8
2023-04-25T08:11:00.705Z,82.8
2023-04-25T08:12:00.690Z,82.8
2023-04-25T08:13:00.703Z,82.5
2023-04-25T08:14:00.707Z,81.5
2023-04-25T08:15:00.736Z,81.5
2023-04-25T08:16:00.707Z,81.5
2023-04-25T08:17:00.724Z,81.8
2023-04-25T08:18:00.743Z,81.5
2023-04-25T08:19:00.704Z,81.2
2023-04-25T08:20:00.802Z,81.5
2023-04-25T08:21:00.760Z,81.2
2023-04-25T08:22:00.744Z,80.9
2023-04-25T08:23:00.704Z,81.5
2023-04-25T08:24:00.714Z,81.5
2023-04-25T08:25:00.721Z,81.5
2023-04-25T08:26:00.715Z,81.5
2023-04-25T08:27:00.739Z,81.5
2023-04-25T08:28:01.304Z,80.9
2023-04-25T08:29:00.723Z,81.5
2023-04-25T08:30:01.045Z,81.5
2023-04-25T08:31:00.855Z,80.9
2023-04-25T08:32:00.832Z,81.2
2023-04-25T08:33:00.850Z,81.5
2023-04-25T08:34:00.870Z,82.1
2023-04-25T08:35:00.848Z,80.9
2023-04-25T08:36:00.853Z,80.6
2023-04-25T08:37:00.783Z,81.5
2023-04-25T08:38:00.754Z,81.5
2023-04-25T08:39:00.798Z,81.2
2023-04-25T08:40:01.060Z,80.8
2023-04-25T08:41:00.900Z,81.5
2023-04-25T08:42:00.933Z,81.5
2023-04-25T08:43:00.932Z,81.4
2023-04-25T08:44:00.867Z,81.4
2023-04-25T08:45:00.923Z,81.4
2023-04-25T08:46:00.906Z,82.1
2023-04-25T08:47:00.918Z,81.4
2023-04-25T08:48:00.967Z,82.1
2023-04-25T08:49:00.894Z,82
2023-04-25T08:50:01.090Z,82.7
2023-04-25T08:51:00.959Z,82.1
2023-04-25T08:52:00.955Z,81.4
2023-04-25T08:53:00.959Z,82.1
2023-04-25T08:54:08.921Z,82.1
2023-04-25T08:55:01.021Z,81.5
2023-04-25T08:56:00.901Z,82.1
2023-04-25T08:57:01.028Z,81.8
2023-04-25T08:58:00.946Z,82.1
2023-04-25T08:59:00.790Z,82.1
2023-04-25T09:00:01.098Z,81.5
2023-04-25T09:01:00.827Z,80.9
2023-04-25T09:02:00.956Z,81.2
2023-04-25T09:03:01.358Z,81.5
2023-04-25T09:04:00.892Z,81.5
2023-04-25T09:05:00.825Z,81.8
2023-04-25T09:06:00.754Z,80.9
2023-04-25T09:07:00.795Z,80.9
2023-04-25T09:08:00.788Z,80.9
2023-04-25T09:09:00.761Z,81.5
2023-04-25T09:10:00.829Z,82.1
2023-04-25T09:11:00.747Z,81.5
2023-04-25T09:12:00.767Z,80.3
2023-04-25T09:13:01.856Z,80.9
2023-04-25T09:14:00.747Z,80.6
2023-04-25T09:15:00.816Z,80.9
2023-04-25T09:16:00.848Z,81.5
2023-04-25T09:17:00.983Z,81.5
2023-04-25T09:18:00.798Z,80.9
2023-04-25T09:19:00.750Z,80
2023-04-25T09:20:00.901Z,80
2023-04-25T09:21:03.011Z,79.3
2023-04-25T09:22:01.126Z,80.3
2023-04-25T09:23:00.756Z,80.3
2023-04-25T09:24:00.758Z,79.6
2023-04-25T09:25:00.763Z,80.6
2023-04-25T09:26:00.772Z,79.9
2023-04-25T09:27:00.771Z,80.9
2023-04-25T09:28:00.790Z,81.2
2023-04-25T09:29:00.801Z,80.9
2023-04-25T09:30:01.869Z,81.5
2023-04-25T09:31:00.780Z,81.5
2023-04-25T09:32:00.838Z,81.5
2023-04-25T09:33:00.770Z,81.9
2023-04-25T09:34:01.225Z,81.3
2023-04-25T09:35:00.770Z,81.3
2023-04-25T09:36:00.867Z,80.7
2023-04-25T09:37:00.804Z,80.4
2023-04-25T09:38:00.771Z,80.4
2023-04-25T09:39:00.782Z,81.1
2023-04-25T09:40:00.809Z,80.5
2023-04-25T09:41:00.802Z,78.9
2023-04-25T09:42:00.897Z,79.2
2023-04-25T09:43:00.772Z,78.6
2023-04-25T09:44:01.487Z,78.6
2023-04-25T09:45:00.775Z,77.4
2023-04-25T09:46:00.852Z,77.1
2023-04-25T09:47:00.782Z,77.4
2023-04-25T09:48:00.800Z,78.7
2023-04-25T09:49:00.785Z,79.3
2023-04-25T09:50:00.797Z,78.1
2023-04-25T09:51:00.795Z,76.8
2023-04-25T09:52:00.806Z,77.7
2023-04-25T09:53:00.773Z,76.5
2023-04-25T09:54:00.781Z,76.2
2023-04-25T09:55:00.817Z,76.8
2023-04-25T09:56:00.819Z,76.8
2023-04-25T09:57:00.872Z,76.8
2023-04-25T09:58:00.782Z,77.5
2023-04-25T09:59:00.809Z,77.5
2023-04-25T10:00:01.168Z,78.1
2023-04-25T10:01:00.825Z,76
2023-04-25T10:02:01.814Z,76
2023-04-25T10:03:00.869Z,75.7
2023-04-25T10:04:01.107Z,75.7
2023-04-25T10:05:00.885Z,73.8
2023-04-25T10:06:00.830Z,76
2023-04-25T10:07:00.866Z,73.8
2023-04-25T10:08:00.832Z,74.4
2023-04-25T10:09:00.794Z,76
2023-04-25T10:10:01.174Z,75.7
2023-04-25T10:11:00.848Z,76
2023-04-25T10:12:00.824Z,72.9
2023-04-25T10:13:00.810Z,74.4
2023-04-25T10:14:00.827Z,74.4
2023-04-25T10:15:00.954Z,75.7
2023-04-25T10:16:00.885Z,75.7
2023-04-25T10:17:00.837Z,73.8
2023-04-25T10:18:00.839Z,73.8
2023-04-25T10:19:00.819Z,75.1
2023-04-25T10:20:00.994Z,73.2
2023-04-25T10:21:00.856Z,73.8
2023-04-25T10:22:00.833Z,74.8
2023-04-25T10:23:00.840Z,72.9
2023-04-25T10:24:00.829Z,73.8
2023-04-25T10:25:00.864Z,72.6
2023-04-25T10:26:00.854Z,73.9
2023-04-25T10:27:00.819Z,74.5
2023-04-25T10:28:00.838Z,72.6
2023-04-25T10:29:00.860Z,72
2023-04-25T10:30:00.938Z,72
2023-04-25T10:31:00.967Z,72.4
2023-04-25T10:32:00.889Z,71.4
2023-04-25T10:33:00.817Z,72.7
2023-04-25T10:34:00.852Z,71.5
2023-04-25T10:35:00.886Z,73.4
2023-04-25T10:36:00.836Z,72.7
2023-04-25T10:37:00.841Z,71.5
2023-04-25T10:38:00.903Z,70.8
2023-04-25T10:39:00.837Z,68
2023-04-25T10:40:00.913Z,70.8
2023-04-25T10:41:00.854Z,70.2
2023-04-25T10:42:00.849Z,70.8
2023-04-25T10:43:00.826Z,71.4
2023-04-25T10:44:00.838Z,71.1
2023-04-25T10:45:00.874Z,72.6
2023-04-25T10:46:00.830Z,73.3
2023-04-25T10:47:00.950Z,73.6
2023-04-25T10:48:01.012Z,73.9
2023-04-25T10:49:00.838Z,72
2023-04-25T10:50:00.947Z,71.1
2023-04-25T10:51:00.881Z,69.6
2023-04-25T10:52:00.863Z,71.1
2023-04-25T10:53:00.858Z,70.5
2023-04-25T10:54:00.864Z,69
2023-04-25T10:55:00.880Z,67.4
2023-04-25T10:56:00.872Z,69.6
2023-04-25T10:57:00.870Z,67.1
2023-04-25T10:58:00.907Z,65.5
2023-04-25T10:59:00.878Z,67.1
2023-04-25T11:00:01.096Z,66.5
2023-04-25T11:01:00.903Z,65.8
2023-04-25T11:02:00.959Z,66.8
2023-04-25T11:03:01.078Z,68.4
2023-04-25T11:04:01.037Z,68.4
2023-04-25T11:05:00.922Z,67.7
2023-04-25T11:06:00.892Z,67.7
2023-04-25T11:07:06.534Z,67.7
2023-04-25T11:08:07.853Z,69.3
2023-04-25T11:09:00.912Z,68.1
2023-04-25T11:10:00.980Z,66.5
2023-04-25T11:11:00.922Z,67.5
2023-04-25T11:12:00.908Z,66.6
2023-04-25T11:13:00.908Z,66.6
2023-04-25T11:14:00.901Z,66.6
2023-04-25T11:15:00.998Z,66.6
2023-04-25T11:16:12.128Z,66.6
2023-04-25T11:17:01.314Z,64.7
2023-04-25T11:18:00.981Z,62.8
2023-04-25T11:19:00.905Z,65.7
2023-04-25T11:20:01.039Z,64.7
2023-04-25T11:21:00.883Z,64.4
2023-04-25T11:22:00.997Z,63.4
2023-04-25T11:23:00.944Z,64.7
2023-04-25T11:24:00.928Z,64.1
2023-04-25T11:25:00.910Z,64.4
2023-04-25T11:26:00.916Z,64.1
2023-04-25T11:27:00.946Z,62.8
2023-04-25T11:28:00.903Z,65
2023-04-25T11:29:00.895Z,65.9
2023-04-25T11:30:01.057Z,65.3
2023-04-25T11:31:00.912Z,65.3
2023-04-25T11:32:00.913Z,65.3
2023-04-25T11:33:00.951Z,63.7
2023-04-25T11:34:00.939Z,66.2
2023-04-25T11:35:00.937Z,64
2023-04-25T11:36:00.904Z,65.9
2023-04-25T11:37:00.927Z,65.3
2023-04-25T11:38:00.880Z,62.8
2023-04-25T11:39:00.845Z,64.7
2023-04-25T11:40:00.889Z,64
2023-04-25T11:41:01.060Z,62.1
2023-04-25T11:42:00.961Z,63.7
2023-04-25T11:43:00.761Z,62.7
2023-04-25T11:44:00.700Z,65
2023-04-25T11:45:00.759Z,64.7
2023-04-25T11:46:00.699Z,65.3
2023-04-25T11:47:00.635Z,62.8
2023-04-25T11:48:00.702Z,62.2
2023-04-25T11:49:00.559Z,63.4
2023-04-25T11:50:00.576Z,63.4
2023-04-25T11:51:00.493Z,63.1
2023-04-25T11:52:00.499Z,62.5
2023-04-25T11:53:00.494Z,62.2
2023-04-25T11:54:00.487Z,61.5
2023-04-25T11:55:00.515Z,61.9
2023-04-25T11:56:00.512Z,59.3
2023-04-25T11:57:00.526Z,60.3
2023-04-25T11:58:00.508Z,59
2023-04-25T11:59:00.547Z,60.9
2023-04-25T12:00:01.151Z,62.8
2023-04-25T12:01:00.545Z,63.1
2023-04-25T12:02:00.525Z,62.5
2023-04-25T12:03:00.683Z,59.6
2023-04-25T12:04:00.677Z,60.6
2023-04-25T12:05:11.840Z,62.5
2023-04-25T12:06:00.710Z,61.6
2023-04-25T12:07:00.573Z,60.4
2023-04-25T12:08:00.511Z,60.4
2023-04-25T12:09:00.514Z,56.6
2023-04-25T12:10:00.622Z,59.7
2023-04-25T12:11:00.531Z,58.4
2023-04-25T12:12:00.507Z,59
2023-04-25T12:13:00.502Z,59.7
2023-04-25T12:14:00.510Z,59
2023-04-25T12:15:01.576Z,59.3
2023-04-25T12:16:00.540Z,59.6
2023-04-25T12:17:00.520Z,59.9
2023-04-25T12:18:00.551Z,59.9
2023-04-25T12:19:00.522Z,60.2
2023-04-25T12:20:00.531Z,59.6
2023-04-25T12:21:00.535Z,60.5
2023-04-25T12:22:00.509Z,60.8
2023-04-25T12:23:00.502Z,61.7
2023-04-25T12:24:00.509Z,61.4
2023-04-25T12:25:00.613Z,62.1
2023-04-25T12:26:00.653Z,61.8
2023-04-25T12:27:00.646Z,60.8
2023-04-25T12:28:00.526Z,60.2
2023-04-25T12:29:00.552Z,60.2
2023-04-25T12:30:00.745Z,61.7
2023-04-25T12:31:00.589Z,62.7
2023-04-25T12:32:00.677Z,62.1
2023-04-25T12:33:00.610Z,59.9
2023-04-25T12:34:00.525Z,60.2
2023-04-25T12:35:00.538Z,58.9
2023-04-25T12:36:00.551Z,58.9
2023-04-25T12:37:00.925Z,59.5
2023-04-25T12:38:00.633Z,59.5
2023-04-25T12:39:00.564Z,59.9
2023-04-25T12:40:00.606Z,59.6
2023-04-25T12:41:00.590Z,59.6
2023-04-25T12:42:00.573Z,59
2023-04-25T12:43:00.531Z,60.3
2023-04-25T12:44:00.527Z,60.6
2023-04-25T12:45:00.599Z,56.8
2023-04-25T12:46:00.550Z,57.8
2023-04-25T12:47:00.658Z,57.4
2023-04-25T12:48:02.109Z,58.4
2023-04-25T12:49:11.759Z,56.5
2023-04-25T12:50:00.565Z,55.9
2023-04-25T12:51:00.558Z,57.4
2023-04-25T12:52:00.528Z,57.1
2023-04-25T12:53:00.576Z,57.1
2023-04-25T12:54:00.561Z,55.6
2023-04-25T12:55:00.580Z,56.8
2023-04-25T12:56:00.589Z,58.4
2023-04-25T12:57:00.570Z,58.4
2023-04-25T12:58:00.560Z,57.2
2023-04-25T12:59:00.548Z,57.2
2023-04-25T13:00:00.588Z,57.1
2023-04-25T13:01:01.307Z,57.8
2023-04-25T13:02:00.682Z,59
2023-04-25T13:03:00.791Z,59.1
2023-04-25T13:04:00.719Z,58.8
2023-04-25T13:05:00.564Z,57.5
2023-04-25T13:06:00.606Z,57.8
2023-04-25T13:07:00.574Z,55.3
2023-04-25T13:08:00.590Z,55.3
2023-04-25T13:09:00.549Z,57.2
2023-04-25T13:10:00.576Z,57.5
2023-04-25T13:11:00.580Z,57.2
2023-04-25T13:12:00.575Z,55.3
2023-04-25T13:13:00.565Z,55.3
2023-04-25T13:14:00.571Z,55.9
2023-04-25T13:15:00.635Z,55.9
2023-04-25T13:16:00.659Z,55.6
2023-04-25T13:17:00.743Z,55.6
2023-04-25T13:18:00.648Z,56.2
2023-04-25T13:19:00.579Z,57.5
2023-04-25T13:20:00.609Z,56.5
2023-04-25T13:21:00.607Z,56.5
2023-04-25T13:22:00.708Z,56.2
2023-04-25T13:23:02.527Z,57.2
2023-04-25T13:24:00.570Z,56.9